Time;durP1;ratioP1;P1;durP2;ratioP2;P2;SDS_P1;SDS_P2;PMS_P1;PMS_P2;Temp;Humidity;BMP_temperature;BMP_pressure;BME280_temperature;BME280_humidity;BME280_pressure;Samples;Min_cycle;Max_cycle;Signal;HPM_P1;HPM_P2
2022/12/07 00:01:29;;;;;;;6.07;1.50;;;3.30;99.90;;;;;;6124172;19;19919;-63
2022/12/07 00:03:35;;;;;;;7.80;1.52;;;3.20;99.90;;;;;;6132185;19;19931;-63
2022/12/07 00:05:39;;;;;;;7.20;1.40;;;;;;;;;;6130101;19;19939;-64
2022/12/07 00:07:43;;;;;;;6.75;1.75;;;3.10;99.90;;;;;;6132749;19;19921;-64
2022/12/07 00:09:47;;;;;;;2.38;1.05;;;3.20;99.90;;;;;;6130902;19;19915;-63
2022/12/07 00:11:53;;;;;;;5.22;1.08;;;3.10;99.90;;;;;;6127966;19;19919;-64
2022/12/07 00:13:59;;;;;;;3.70;1.52;;;3.10;99.90;;;;;;6128985;19;20348;-63
2022/12/07 00:16:04;;;;;;;4.25;1.15;;;3.20;99.90;;;;;;6131691;19;19994;-63
2022/12/07 00:18:08;;;;;;;6.13;0.98;;;;;;;;;;6129588;19;19919;-63
2022/12/07 00:20:15;;;;;;;5.05;1.00;;;3.30;99.90;;;;;;6131864;19;19945;-63
2022/12/07 00:22:19;;;;;;;4.43;1.27;;;;;;;;;;6129573;19;20329;-63
2022/12/07 00:24:23;;;;;;;8.07;1.52;;;3.90;99.90;;;;;;6131997;19;19919;-64
2022/12/07 00:26:28;;;;;;;6.85;1.00;;;3.20;99.90;;;;;;6129092;19;19940;-63
2022/12/07 00:28:33;;;;;;;4.68;0.70;;;;;;;;;;6123104;19;19919;-64
2022/12/07 00:30:37;;;;;;;2.67;0.70;;;;;;;;;;6128072;19;19926;-64
2022/12/07 00:32:41;;;;;;;6.40;0.90;;;;;;;;;;6132516;19;19926;-64
2022/12/07 00:34:45;;;;;;;10.15;0.77;;;;;;;;;;6129789;19;19914;-64
2022/12/07 00:36:53;;;;;;;3.75;1.00;;;3.20;99.90;;;;;;6132693;19;19922;-64
2022/12/07 00:38:57;;;;;;;2.05;0.60;;;;;;;;;;6129342;19;19927;-64
2022/12/07 00:41:03;;;;;;;3.25;0.80;;;3.50;99.90;;;;;;6131105;19;19919;-64
2022/12/07 00:43:07;;;;;;;2.42;0.35;;;3.70;99.90;;;;;;6128867;19;19940;-64
2022/12/07 00:45:12;;;;;;;3.53;0.80;;;3.40;99.90;;;;;;6124412;19;19922;-64
2022/12/07 00:47:15;;;;;;;1.52;0.45;;;3.70;99.90;;;;;;6129248;19;19911;-64
2022/12/07 00:49:20;;;;;;;5.03;0.60;;;;;;;;;;6132344;19;19930;-65
2022/12/07 00:51:26;;;;;;;2.47;0.55;;;3.60;99.90;;;;;;6130925;19;19942;-64
2022/12/07 00:53:33;;;;;;;4.72;0.50;;;3.90;99.90;;;;;;6129265;19;19918;-64
2022/12/07 00:55:37;;;;;;;1.20;0.30;;;3.60;99.90;;;;;;6128770;19;19942;-64
2022/12/07 00:57:41;;;;;;;6.32;0.57;;;3.30;99.90;;;;;;6129126;19;19918;-64
2022/12/07 00:59:45;;;;;;;1.15;0.40;;;4.00;99.90;;;;;;6131201;19;19927;-64
2022/12/07 01:01:49;;;;;;;5.13;0.40;;;;;;;;;;6122211;19;19930;-64
2022/12/07 01:03:53;;;;;;;5.15;0.60;;;3.60;99.90;;;;;;6127656;19;19946;-64
2022/12/07 01:05:58;;;;;;;3.22;0.52;;;3.60;99.90;;;;;;6130882;19;19922;-64
2022/12/07 01:08:02;;;;;;;3.40;0.40;;;3.60;99.90;;;;;;6129204;19;20407;-65
2022/12/07 01:10:10;;;;;;;2.15;0.43;;;3.70;99.90;;;;;;6130885;19;19927;-64
2022/12/07 01:12:14;;;;;;;3.85;0.65;;;3.90;99.90;;;;;;6129178;19;19927;-64
2022/12/07 01:14:18;;;;;;;1.17;0.30;;;;;;;;;;6129518;19;20459;-64
2022/12/07 01:16:23;;;;;;;4.45;0.52;;;3.40;99.90;;;;;;6130642;19;19922;-64
2022/12/07 01:18:27;;;;;;;3.38;0.40;;;;;;;;;;6129385;19;19923;-64
2022/12/07 01:20:31;;;;;;;5.95;0.40;;;4.00;99.90;;;;;;6124378;19;20364;-64
2022/12/07 01:22:39;;;;;;;5.40;0.55;;;4.00;99.90;;;;;;6130426;19;19918;-64
2022/12/07 01:24:43;;;;;;;1.83;0.20;;;;;;;;;;6128395;19;20253;-64
2022/12/07 01:26:51;;;;;;;1.73;0.60;;;3.90;99.90;;;;;;6130390;19;19918;-64
2022/12/07 01:28:58;;;;;;;2.78;0.40;;;3.90;99.90;;;;;;6122148;19;20038;-66
2022/12/07 01:31:05;;;;;;;5.05;0.93;;;3.60;99.90;;;;;;6130230;19;19930;-67
2022/12/07 01:33:09;;;;;;;1.60;0.20;;;;;;;;;;6130936;19;19911;-64
2022/12/07 01:35:13;;;;;;;0.70;0.30;;;3.70;99.90;;;;;;6127931;19;19918;-65
2022/12/07 01:37:17;;;;;;;6.28;1.25;;;;;;;;;;6128063;19;20445;-64
2022/12/07 01:39:21;;;;;;;4.20;0.63;;;4.10;99.90;;;;;;6131596;19;19918;-64
2022/12/07 01:41:27;;;;;;;1.30;0.20;;;3.90;99.90;;;;;;6127800;19;19921;-64
2022/12/07 01:43:35;;;;;;;3.38;0.40;;;3.50;99.90;;;;;;6127673;19;20367;-63
2022/12/07 01:45:43;;;;;;;3.55;0.40;;;3.80;99.90;;;;;;6128918;19;20349;-63
2022/12/07 01:47:52;;;;;;;4.55;0.55;;;4.00;99.90;;;;;;6131205;19;19922;-63
2022/12/07 01:49:56;;;;;;;4.35;1.33;;;;;;;;;;6129539;19;19915;-63
2022/12/07 01:52:06;;;;;;;3.83;0.70;;;3.70;99.90;;;;;;6130250;19;19937;-63
2022/12/07 01:54:11;;;;;;;1.90;0.50;;;3.60;99.90;;;;;;6127593;19;19963;-63
2022/12/07 01:56:26;;;;;;;3.90;0.57;;;3.80;99.90;;;;;;6127665;19;19914;-64
2022/12/07 01:58:30;;;;;;;2.85;0.73;;;;;;;;;;6128125;19;19958;-63
2022/12/07 02:00:37;;;;;;;3.50;0.60;;;3.60;99.90;;;;;;6122560;19;20348;-64
2022/12/07 02:02:46;;;;;;;6.22;0.75;;;3.50;99.90;;;;;;6128073;19;20695;-63
2022/12/07 02:04:49;;;;;;;3.28;0.60;;;4.10;99.90;;;;;;6130751;19;19910;-64
2022/12/07 02:06:54;;;;;;;4.72;0.40;;;;;;;;;;6129039;19;19914;-63
2022/12/07 02:08:58;;;;;;;3.90;1.05;;;;;;;;;;6127240;19;19914;-63
2022/12/07 02:11:02;;;;;;;3.08;0.30;;;3.70;99.90;;;;;;6127395;19;19914;-64
2022/12/07 02:13:10;;;;;;;2.85;0.38;;;3.40;99.90;;;;;;6126655;19;19919;-64
2022/12/07 02:15:15;;;;;;;4.18;0.80;;;3.70;99.90;;;;;;6127432;19;20360;-63
2022/12/07 02:17:27;;;;;;;3.05;0.57;;;3.60;99.90;;;;;;6122564;19;19919;-63
2022/12/07 02:20:03;;;;;;;6.30;0.82;;;3.70;99.90;;;;;;6118654;19;20460;-64
2022/12/07 02:22:25;;;;;;;3.08;0.30;;;3.20;99.90;;;;;;6126868;19;19911;-64
2022/12/07 02:24:48;;;;;;;2.42;0.65;;;3.50;99.90;;;;;;6129703;19;19942;-64
2022/12/07 02:27:11;;;;;;;3.65;0.35;;;;;;;;;;6126219;19;19955;-63
2022/12/07 02:29:23;;;;;;;2.60;0.47;;;4.20;99.90;;;;;;6125149;19;20344;-64
2022/12/07 02:31:31;;;;;;;0.77;0.20;;;4.40;99.90;;;;;;6126405;19;19919;-64
2022/12/07 02:33:42;;;;;;;0.60;0.30;;;3.80;99.90;;;;;;6121782;19;19979;-64
2022/12/07 02:35:50;;;;;;;3.80;0.30;;;3.20;99.90;;;;;;6126939;19;19961;-64
2022/12/07 02:38:03;;;;;;;2.50;0.20;;;4.00;99.90;;;;;;6129748;19;19942;-63
2022/12/07 02:40:16;;;;;;;8.13;0.70;;;3.60;99.90;;;;;;6128381;19;19918;-63
2022/12/07 02:42:25;;;;;;;3.03;0.57;;;3.50;99.90;;;;;;6127090;19;19950;-64
2022/12/07 02:44:34;;;;;;;3.60;0.50;;;3.50;99.90;;;;;;6127987;19;19921;-63
2022/12/07 02:46:42;;;;;;;1.90;0.50;;;3.60;99.90;;;;;;6127465;19;19926;-63
2022/12/07 02:48:46;;;;;;;3.63;0.40;;;3.80;99.90;;;;;;6126123;19;19918;-63
2022/12/07 02:50:52;;;;;;;2.38;0.30;;;3.70;99.90;;;;;;6121396;19;20257;-63
2022/12/07 02:52:56;;;;;;;2.45;0.40;;;3.50;99.90;;;;;;6126156;19;19926;-63
2022/12/07 02:55:00;;;;;;;2.35;0.40;;;;;;;;;;6126237;19;19918;-63
2022/12/07 02:57:14;;;;;;;3.10;0.85;;;3.10;99.90;;;;;;6127326;19;20257;-63
2022/12/07 02:59:28;;;;;;;2.85;0.47;;;3.60;99.90;;;;;;6126722;19;19958;-63
2022/12/07 03:01:44;;;;;;;2.53;0.30;;;3.60;99.90;;;;;;6126494;19;19918;-64
2022/12/07 03:03:57;;;;;;;5.68;0.40;;;3.00;99.90;;;;;;6125949;19;19918;-64
2022/12/07 03:06:13;;;;;;;2.97;0.52;;;3.50;99.90;;;;;;6126453;19;19938;-63
2022/12/07 03:08:24;;;;;;;4.65;0.47;;;4.00;99.90;;;;;;6118031;19;19934;-63
2022/12/07 03:10:35;;;;;;;5.38;0.43;;;3.40;99.90;;;;;;6126627;19;20324;-63
2022/12/07 03:12:47;;;;;;;1.95;0.40;;;3.50;99.90;;;;;;6126001;19;19918;-63
2022/12/07 03:14:58;;;;;;;4.30;0.45;;;3.60;99.90;;;;;;6127107;19;20276;-62
2022/12/07 03:17:10;;;;;;;2.17;0.35;;;3.80;99.90;;;;;;6124903;19;19919;-64
2022/12/07 03:19:17;;;;;;;3.97;0.40;;;3.40;99.90;;;;;;6127081;19;19946;-64
2022/12/07 03:21:25;;;;;;;2.47;0.30;;;3.80;99.90;;;;;;6127312;19;20285;-63
2022/12/07 03:23:32;;;;;;;4.40;0.40;;;3.60;99.90;;;;;;6127356;19;19930;-63
2022/12/07 03:25:38;;;;;;;1.98;0.55;;;3.90;99.90;;;;;;6120349;19;20248;-63
2022/12/07 03:27:48;;;;;;;2.28;1.23;;;3.70;99.90;;;;;;6123730;19;19942;-63
2022/12/07 03:29:56;;;;;;;1.80;0.30;;;3.20;99.90;;;;;;6126085;19;19919;-63
2022/12/07 03:32:07;;;;;;;1.88;0.25;;;3.70;99.90;;;;;;6127144;19;19969;-63
2022/12/07 03:34:16;;;;;;;2.38;0.47;;;3.90;99.90;;;;;;6125626;19;19922;-63
2022/12/07 03:36:21;;;;;;;;;;;;;;;;;;6128331;19;19915;-64
2022/12/07 03:38:30;;;;;;;3.50;0.55;;;3.60;99.90;;;;;;6124840;19;20030;-64
2022/12/07 03:40:37;;;;;;;2.55;0.20;;;;;;;;;;6125398;19;19955;-63
2022/12/07 03:42:41;;;;;;;1.58;0.60;;;3.50;99.90;;;;;;6125420;19;19955;-63
2022/12/07 03:44:46;;;;;;;3.63;0.40;;;3.20;99.90;;;;;;6121529;19;19982;-63
2022/12/07 03:47:01;;;;;;;1.58;0.35;;;3.30;99.90;;;;;;6126366;19;19922;-63
2022/12/07 03:49:14;;;;;;;0.82;0.13;;;3.10;99.90;;;;;;6122689;19;19928;-63
2022/12/07 03:51:25;;;;;;;6.93;1.48;;;3.40;99.90;;;;;;6125477;19;19922;-64
2022/12/07 03:53:35;;;;;;;4.20;0.30;;;2.90;99.90;;;;;;6125045;19;19923;-63
2022/12/07 03:55:44;;;;;;;3.47;0.60;;;3.10;99.90;;;;;;6125376;19;19930;-64
2022/12/07 03:57:51;;;;;;;1.30;0.38;;;2.80;99.90;;;;;;6125270;19;19926;-63
2022/12/07 03:59:57;;;;;;;5.20;0.52;;;3.30;99.90;;;;;;6124553;19;19922;-64
2022/12/07 04:02:05;;;;;;;2.95;0.73;;;3.20;99.90;;;;;;6126029;19;19946;-64
2022/12/07 04:04:12;;;;;;;3.95;0.38;;;;;;;;;;6118149;19;19918;-64
2022/12/07 04:06:16;;;;;;;1.08;0.38;;;3.20;99.90;;;;;;6125486;19;19941;-63
2022/12/07 04:08:20;;;;;;;2.33;0.20;;;2.90;99.90;;;;;;6119377;19;19926;-63
2022/12/07 04:10:24;;;;;;;2.03;0.45;;;3.40;99.90;;;;;;6124932;19;19974;-63
2022/12/07 04:12:28;;;;;;;3.78;0.30;;;3.40;99.90;;;;;;6124194;19;19942;-63
2022/12/07 04:14:32;;;;;;;3.00;0.32;;;;;;;;;;6126978;19;19926;-62
2022/12/07 04:16:36;;;;;;;3.35;0.30;;;3.10;99.90;;;;;;6123584;19;20351;-62
2022/12/07 04:18:40;;;;;;;3.20;0.30;;;;;;;;;;6125652;19;19922;-63
2022/12/07 04:20:48;;;;;;;4.70;0.30;;;3.30;99.90;;;;;;6118578;19;19922;-64
2022/12/07 04:22:52;;;;;;;5.70;0.45;;;;;;;;;;6125991;19;19939;-62
2022/12/07 04:24:56;;;;;;;3.13;0.50;;;;;;;;;;6123979;19;19954;-63
2022/12/07 04:27:00;;;;;;;3.30;0.20;;;3.60;99.90;;;;;;6121242;19;19914;-63
2022/12/07 04:29:04;;;;;;;3.45;0.50;;;3.50;99.90;;;;;;6124628;19;20021;-63
2022/12/07 04:31:08;;;;;;;2.65;0.47;;;3.40;99.90;;;;;;6124963;19;19930;-63
2022/12/07 04:33:12;;;;;;;4.68;0.80;;;3.30;99.90;;;;;;6123085;19;20268;-63
2022/12/07 04:35:16;;;;;;;2.78;0.30;;;3.00;99.90;;;;;;6125696;19;19946;-64
2022/12/07 04:37:22;;;;;;;4.15;0.30;;;3.00;99.90;;;;;;6129594;19;19946;-63
2022/12/07 04:39:29;;;;;;;8.70;0.70;;;;;;;;;;6130466;19;19942;-63
2022/12/07 04:41:33;;;;;;;6.53;0.52;;;3.30;99.90;;;;;;6129959;19;19990;-63
2022/12/07 04:43:38;;;;;;;4.22;0.50;;;2.70;99.90;;;;;;6122570;19;19968;-63
2022/12/07 04:45:42;;;;;;;9.65;3.15;;;2.80;99.90;;;;;;6126065;19;20353;-63
2022/12/07 04:47:46;;;;;;;5.57;0.80;;;3.40;99.90;;;;;;6130929;19;19918;-63
2022/12/07 04:49:50;;;;;;;7.20;1.10;;;;;;;;;;6128983;19;19954;-63
2022/12/07 04:51:54;;;;;;;4.13;1.80;;;;;;;;;;6129144;19;20301;-63
2022/12/07 04:54:01;;;;;;;5.22;4.13;;;3.50;99.90;;;;;;6128390;19;19925;-63
2022/12/07 04:56:05;;;;;;;3.35;2.33;;;3.10;99.90;;;;;;6128455;19;19915;-63
2022/12/07 04:58:09;;;;;;;4.35;1.20;;;;;;;;;;6126529;19;20277;-62
2022/12/07 05:00:13;;;;;;;3.85;1.15;;;3.50;99.90;;;;;;6124761;19;19923;-63
2022/12/07 05:02:17;;;;;;;1.80;1.20;;;3.10;99.90;;;;;;6130227;19;19925;-64
2022/12/07 05:04:21;;;;;;;5.25;0.80;;;3.20;99.90;;;;;;6130435;19;19918;-64
2022/12/07 05:06:25;;;;;;;2.63;0.38;;;3.40;99.90;;;;;;6131165;19;19929;-63
2022/12/07 05:08:29;;;;;;;2.78;0.43;;;3.50;99.90;;;;;;6128197;19;19926;-63
2022/12/07 05:10:35;;;;;;;1.75;0.40;;;3.10;99.90;;;;;;6130171;19;19919;-63
2022/12/07 05:12:39;;;;;;;6.80;0.88;;;;;;;;;;6129365;19;19922;-63
2022/12/07 05:14:43;;;;;;;0.98;0.17;;;3.60;99.90;;;;;;6129456;19;20276;-64
2022/12/07 05:16:50;;;;;;;1.75;0.20;;;3.50;99.90;;;;;;6121004;19;19938;-63
2022/12/07 05:18:54;;;;;;;0.55;0.10;;;3.50;99.90;;;;;;6130018;19;19933;-64
2022/12/07 05:20:58;;;;;;;3.00;0.47;;;2.80;99.90;;;;;;6129465;19;19926;-63
2022/12/07 05:23:02;;;;;;;0.15;0.05;;;4.60;99.90;;;;;;6126212;19;19922;-63
2022/12/07 05:25:06;;;;;;;3.00;0.40;;;3.10;99.90;;;;;;6129487;19;20341;-63
2022/12/07 05:27:12;;;;;;;3.40;1.02;;;3.10;99.90;;;;;;6127365;19;20388;-64
2022/12/07 05:29:18;;;;;;;1.85;0.47;;;3.10;99.90;;;;;;6124784;19;19915;-64
2022/12/07 05:31:22;;;;;;;2.50;0.30;;;2.70;99.90;;;;;;6130512;19;19926;-63
2022/12/07 05:33:27;;;;;;;4.13;0.57;;;;;;;;;;6127331;19;19923;-63
2022/12/07 05:35:30;;;;;;;1.52;0.47;;;3.30;99.90;;;;;;6120895;19;19922;-64
2022/12/07 05:37:34;;;;;;;3.40;0.30;;;2.60;99.90;;;;;;6129225;19;19934;-63
2022/12/07 05:39:42;;;;;;;1.67;0.40;;;;;;;;;;6128507;19;19923;-63
2022/12/07 05:44:05;;;;;;;5.03;0.57;;;3.00;99.90;;;;;;6130426;19;19918;-63
2022/12/07 05:46:09;;;;;;;2.65;0.40;;;2.50;99.90;;;;;;6127869;19;19926;-64
2022/12/07 05:48:13;;;;;;;1.15;0.30;;;2.70;99.90;;;;;;6130508;19;19926;-65
2022/12/07 05:50:17;;;;;;;5.00;0.45;;;3.10;99.90;;;;;;6128280;19;19924;-63
2022/12/07 05:52:21;;;;;;;3.58;0.52;;;3.00;99.90;;;;;;6122742;19;20333;-63
2022/12/07 05:54:25;;;;;;;2.63;0.35;;;2.90;99.90;;;;;;6126982;19;20569;-63
2022/12/07 05:56:29;;;;;;;2.80;0.82;;;;;;;;;;6128871;19;20366;-63
2022/12/07 06:00:52;;;;;;;4.28;0.50;;;2.90;99.90;;;;;;6129467;19;19961;-63
2022/12/07 06:02:56;;;;;;;9.13;0.68;;;;;;;;;;6128319;19;19923;-63
2022/12/07 06:05:00;;;;;;;6.18;0.60;;;2.90;99.90;;;;;;6129698;19;20345;-64
2022/12/07 06:07:04;;;;;;;2.50;0.20;;;3.00;99.90;;;;;;6123608;19;20396;-64
2022/12/07 06:09:08;;;;;;;4.65;0.73;;;2.80;99.90;;;;;;6126901;19;19914;-64
2022/12/07 06:13:28;;;;;;;1.85;0.40;;;;;;;;;;6124774;19;19918;-64
2022/12/07 06:15:32;;;;;;;3.17;0.55;;;2.70;99.90;;;;;;6128946;19;19922;-63
2022/12/07 06:17:39;;;;;;;2.67;0.30;;;2.80;99.90;;;;;;6128268;19;20257;-63
2022/12/07 06:19:43;;;;;;;4.07;0.50;;;2.80;99.90;;;;;;6129360;19;20253;-63
2022/12/07 06:21:47;;;;;;;2.42;0.60;;;3.10;99.90;;;;;;6128533;19;19941;-63
2022/12/07 06:23:51;;;;;;;1.92;0.88;;;;;;;;;;6127287;19;19919;-64
2022/12/07 06:25:55;;;;;;;4.50;1.15;;;;;;;;;;6124151;19;19930;-64
2022/12/07 06:27:59;;;;;;;3.05;0.77;;;;;;;;;;6116406;19;19923;-64
2022/12/07 06:30:06;;;;;;;1.70;0.28;;;2.90;99.90;;;;;;6123973;19;19926;-64
2022/12/07 06:32:10;;;;;;;2.33;0.32;;;;;;;;;;6129717;19;20355;-63
2022/12/07 06:34:19;;;;;;;4.13;0.52;;;3.00;99.90;;;;;;6125529;19;19919;-64
2022/12/07 06:36:23;;;;;;;5.50;0.70;;;2.80;99.90;;;;;;6130091;19;19929;-64
2022/12/07 06:38:27;;;;;;;1.05;0.30;;;2.90;99.90;;;;;;6128898;19;19911;-63
2022/12/07 06:40:32;;;;;;;1.33;0.30;;;3.00;99.90;;;;;;6126532;19;19915;-64
2022/12/07 06:42:36;;;;;;;4.97;0.45;;;;;;;;;;6126713;19;19966;-64
2022/12/07 06:44:40;;;;;;;4.88;0.60;;;;;;;;;;6126517;19;19907;-63
2022/12/07 06:46:44;;;;;;;5.05;0.98;;;3.30;99.90;;;;;;6123335;19;19915;-64
2022/12/07 06:48:48;;;;;;;2.42;0.52;;;3.00;99.90;;;;;;6127353;19;19942;-64
2022/12/07 06:50:57;;;;;;;3.92;0.70;;;3.30;99.90;;;;;;6127043;19;19928;-64
2022/12/07 06:53:01;;;;;;;4.00;0.57;;;3.50;99.90;;;;;;6126945;19;19986;-66
2022/12/07 06:55:06;;;;;;;3.33;0.43;;;3.20;99.90;;;;;;6122988;19;19918;-64
2022/12/07 06:57:10;;;;;;;5.07;0.60;;;2.80;99.90;;;;;;6127563;19;19922;-63
2022/12/07 06:59:14;;;;;;;4.13;0.77;;;2.80;99.90;;;;;;6126711;19;20392;-63
2022/12/07 07:01:20;;;;;;;2.25;0.45;;;3.10;99.90;;;;;;6124542;19;19940;-63
2022/12/07 07:03:24;;;;;;;3.13;0.70;;;2.80;99.90;;;;;;6125847;19;20337;-63
2022/12/07 07:05:28;;;;;;;6.47;0.95;;;3.00;99.90;;;;;;6118994;19;20549;-63
2022/12/07 07:07:34;;;;;;;7.50;1.10;;;2.80;99.90;;;;;;6122257;19;19941;-64
2022/12/07 07:09:38;;;;;;;6.13;0.40;;;3.30;99.90;;;;;;6128053;19;20403;-63
2022/12/07 07:11:42;;;;;;;6.22;0.60;;;;;;;;;;6127067;19;19914;-63
2022/12/07 07:13:47;;;;;;;5.75;0.70;;;2.50;99.90;;;;;;6128801;19;19919;-63
2022/12/07 07:15:51;;;;;;;2.83;0.40;;;3.00;99.90;;;;;;6123196;19;19938;-63
2022/12/07 07:17:55;;;;;;;2.65;0.75;;;;;;;;;;6125474;19;19930;-63
2022/12/07 07:19:59;;;;;;;2.78;0.60;;;;;;;;;;6127179;19;19923;-65
2022/12/07 07:22:03;;;;;;;9.65;1.75;;;2.50;99.90;;;;;;6126820;19;19942;-62
2022/12/07 07:24:10;;;;;;;4.32;0.60;;;2.70;99.90;;;;;;6125680;19;19918;-63
2022/12/07 07:26:14;;;;;;;5.72;0.68;;;;;;;;;;6124852;19;19922;-63
2022/12/07 07:28:18;;;;;;;5.43;0.50;;;;;;;;;;6117372;19;20014;-63
2022/12/07 07:30:22;;;;;;;10.77;1.13;;;2.80;99.90;;;;;;6124785;19;19925;-63
2022/12/07 07:32:26;;;;;;;14.05;0.85;;;2.30;99.90;;;;;;6124735;19;19929;-62
2022/12/07 07:34:30;;;;;;;4.40;0.85;;;2.70;99.90;;;;;;6124015;19;21930;-63
2022/12/07 07:36:34;;;;;;;4.80;0.88;;;;;;;;;;6126008;19;19923;-63
2022/12/07 07:38:38;;;;;;;2.67;0.80;;;2.80;99.90;;;;;;6123957;19;19944;-63
2022/12/07 07:40:45;;;;;;;3.90;0.73;;;;;;;;;;6125753;19;20336;-63
2022/12/07 07:42:50;;;;;;;3.88;0.55;;;;;;;;;;6124962;19;19929;-63
2022/12/07 07:44:54;;;;;;;3.63;0.60;;;2.20;99.90;;;;;;6121122;19;20008;-63
2022/12/07 07:46:58;;;;;;;4.65;0.73;;;3.00;99.90;;;;;;6125349;19;19918;-63
2022/12/07 07:49:02;;;;;;;3.75;0.68;;;;;;;;;;6124366;19;19918;-63
2022/12/07 07:51:08;;;;;;;3.55;0.70;;;2.80;99.90;;;;;;6124887;19;19929;-63
2022/12/07 07:53:12;;;;;;;3.72;0.70;;;;;;;;;;6124202;19;19942;-63
2022/12/07 07:55:17;;;;;;;2.85;0.80;;;2.80;99.90;;;;;;6121661;19;19935;-63
2022/12/07 07:57:23;;;;;;;2.65;0.60;;;2.80;99.90;;;;;;6126624;19;19966;-63
2022/12/07 07:59:27;;;;;;;5.05;0.90;;;;;;;;;;6124207;19;19911;-63
2022/12/07 08:01:31;;;;;;;7.72;1.05;;;;;;;;;;6121791;19;19922;-63
2022/12/07 08:03:35;;;;;;;6.72;1.13;;;2.70;99.90;;;;;;6124394;19;19946;-63
2022/12/07 08:05:40;;;;;;;6.60;1.02;;;;;;;;;;6123174;19;19923;-62
2022/12/07 08:07:44;;;;;;;10.88;1.35;;;2.60;99.90;;;;;;6126009;19;20327;-62
2022/12/07 08:09:47;;;;;;;4.30;0.52;;;2.60;99.90;;;;;;6123823;19;19919;-62
2022/12/07 08:11:52;;;;;;;6.68;0.98;;;;;;;;;;6128983;19;19946;-63
2022/12/07 08:13:58;;;;;;;3.97;0.40;;;2.90;99.90;;;;;;6129263;19;19939;-63
2022/12/07 08:16:06;;;;;;;2.65;0.55;;;;;;;;;;6131180;19;19922;-64
2022/12/07 08:18:11;;;;;;;5.53;0.75;;;;;;;;;;6131771;19;19919;-63
2022/12/07 08:20:14;;;;;;;3.38;0.38;;;3.40;99.90;;;;;;6127748;19;20292;-63
2022/12/07 08:22:18;;;;;;;7.32;1.05;;;;;;;;;;6129308;19;19947;-63
2022/12/07 08:24:23;;;;;;;10.30;1.30;;;;;;;;;;6126218;19;20280;-64
2022/12/07 08:26:27;;;;;;;9.45;0.75;;;;;;;;;;6131358;19;19922;-64
2022/12/07 08:28:31;;;;;;;8.02;1.67;;;;;;;;;;6130403;19;20455;-62
2022/12/07 08:30:38;;;;;;;2.70;0.60;;;2.90;99.90;;;;;;6128850;19;19934;-63
2022/12/07 08:32:42;;;;;;;5.88;0.73;;;3.20;99.90;;;;;;6129608;19;19925;-64
2022/12/07 08:34:46;;;;;;;2.13;0.32;;;3.40;99.90;;;;;;6122889;19;20058;-63
2022/12/07 08:36:51;;;;;;;2.28;0.20;;;;;;;;;;6128013;19;19915;-63
2022/12/07 08:38:55;;;;;;;1.55;0.30;;;;;;;;;;6129980;19;19922;-63
2022/12/07 08:41:00;;;;;;;5.82;0.60;;;2.80;99.90;;;;;;6130881;19;19914;-63
2022/12/07 08:43:04;;;;;;;5.07;1.45;;;;;;;;;;6128916;19;19942;-63
2022/12/07 08:45:10;;;;;;;5.40;0.68;;;3.20;99.90;;;;;;6124742;19;20010;-63
2022/12/07 08:47:16;;;;;;;5.25;0.60;;;3.30;99.90;;;;;;6128589;19;19914;-63
2022/12/07 08:49:24;;;;;;;3.95;0.73;;;3.10;99.90;;;;;;6129208;19;19914;-63
2022/12/07 08:51:29;;;;;;;5.38;0.70;;;;;;;;;;6128508;19;20326;-62
2022/12/07 08:53:34;;;;;;;5.95;0.65;;;3.40;99.90;;;;;;6127960;19;20341;-63
2022/12/07 08:55:38;;;;;;;4.18;0.35;;;2.90;99.90;;;;;;6127027;19;19978;-63
2022/12/07 08:57:43;;;;;;;4.45;0.70;;;3.30;99.90;;;;;;6128061;19;19926;-63
2022/12/07 08:59:46;;;;;;;3.33;0.50;;;3.50;99.90;;;;;;6128962;19;19919;-63
2022/12/07 09:01:51;;;;;;;2.28;0.68;;;;;;;;;;6130635;19;19919;-63
2022/12/07 09:03:57;;;;;;;1.58;0.50;;;3.30;99.90;;;;;;6128459;19;19914;-63
2022/12/07 09:06:01;;;;;;;3.70;0.70;;;3.90;99.90;;;;;;6128600;19;19924;-64
2022/12/07 09:08:06;;;;;;;7.10;1.58;;;;;;;;;;6128301;19;19915;-63
2022/12/07 09:10:10;;;;;;;3.60;1.15;;;;;;;;;;6129177;19;20407;-64
2022/12/07 09:12:14;;;;;;;4.38;1.15;;;;;;;;;;6128165;19;20260;-64
2022/12/07 09:14:18;;;;;;;7.95;1.33;;;3.90;99.90;;;;;;6128694;19;19942;-64
2022/12/07 09:16:22;;;;;;;1.77;0.60;;;3.60;99.90;;;;;;6127788;19;19915;-63
2022/12/07 09:18:26;;;;;;;7.15;0.82;;;3.80;99.90;;;;;;6128309;19;19942;-64
2022/12/07 09:20:33;;;;;;;5.32;0.63;;;4.40;99.90;;;;;;6128057;19;20280;-63
2022/12/07 09:22:37;;;;;;;2.63;1.25;;;3.90;99.90;;;;;;6127401;19;19996;-63
2022/12/07 09:24:41;;;;;;;4.32;1.25;;;4.10;99.90;;;;;;6122066;19;20089;-63
2022/12/07 09:26:45;;;;;;;2.55;0.65;;;4.30;99.90;;;;;;6128680;19;19919;-63
2022/12/07 09:28:49;;;;;;;6.22;0.65;;;3.90;99.90;;;;;;6128631;19;20237;-63
2022/12/07 09:30:53;;;;;;;5.70;0.70;;;3.40;99.90;;;;;;6129551;19;20336;-64
2022/12/07 09:32:58;;;;;;;2.05;0.50;;;3.60;99.90;;;;;;6128501;19;19914;-65
2022/12/07 09:35:02;;;;;;;0.82;0.25;;;;;;;;;;6126817;19;20355;-63
2022/12/07 09:37:09;;;;;;;2.28;0.47;;;4.10;99.90;;;;;;6126880;19;19915;-64
2022/12/07 09:39:13;;;;;;;1.15;0.40;;;;;;;;;;6126901;19;19922;-63
2022/12/07 09:41:18;;;;;;;3.35;0.70;;;3.90;99.90;;;;;;6130246;19;19918;-64
2022/12/07 09:43:24;;;;;;;1.10;0.30;;;4.20;99.90;;;;;;6127594;19;19915;-63
2022/12/07 09:45:34;;;;;;;1.17;0.40;;;4.30;99.90;;;;;;6127323;19;19921;-64
2022/12/07 09:47:38;;;;;;;4.65;0.55;;;4.70;99.90;;;;;;6127804;19;19934;-63
2022/12/07 09:49:42;;;;;;;4.28;0.82;;;3.80;99.90;;;;;;6127400;19;19914;-63
2022/12/07 09:51:46;;;;;;;0.73;0.20;;;4.70;99.90;;;;;;6127748;19;19942;-64
2022/12/07 09:53:54;;;;;;;3.13;0.38;;;4.40;99.90;;;;;;6127684;19;19915;-64
2022/12/07 09:55:58;;;;;;;2.75;0.50;;;4.40;99.90;;;;;;6128005;19;19918;-63
2022/12/07 09:58:02;;;;;;;1.92;0.38;;;;;;;;;;6126957;19;19949;-63
2022/12/07 10:00:14;;;;;;;3.58;0.70;;;4.40;99.90;;;;;;6127888;19;20273;-63
2022/12/07 10:02:35;;;;;;;1.40;0.50;;;4.70;99.90;;;;;;6127452;19;19922;-64
2022/12/07 10:04:40;;;;;;;2.80;0.50;;;4.50;99.90;;;;;;6121945;19;20023;-63
2022/12/07 10:06:45;;;;;;;1.23;0.50;;;4.40;99.90;;;;;;6127029;19;20566;-63
2022/12/07 10:08:50;;;;;;;6.25;0.43;;;4.50;99.90;;;;;;6126942;19;19923;-63
2022/12/07 10:10:58;;;;;;;2.33;0.60;;;4.40;99.90;;;;;;6127124;19;19918;-63
2022/12/07 10:13:06;;;;;;;5.25;0.50;;;4.20;99.90;;;;;;6126919;19;19925;-64
2022/12/07 10:15:10;;;;;;;6.18;0.60;;;4.60;99.90;;;;;;6126981;19;19938;-63
2022/12/07 10:17:38;;;;;;;8.50;1.80;;;5.00;99.90;;;;;;6127047;19;19938;-62
2022/12/07 10:19:42;;;;;;;5.43;0.95;;;;;;;;;;6126762;19;19936;-63
2022/12/07 10:22:03;;;;;;;4.32;0.60;;;4.00;99.90;;;;;;6127031;19;19946;-63
2022/12/07 10:24:16;;;;;;;3.53;0.60;;;4.00;99.90;;;;;;6126741;19;20269;-62
2022/12/07 10:26:31;;;;;;;7.28;0.80;;;4.70;99.90;;;;;;6126588;19;19919;-62
2022/12/07 10:28:38;;;;;;;5.05;1.45;;;4.50;99.90;;;;;;6126155;19;19939;-63
2022/12/07 10:30:56;;;;;;;4.70;0.65;;;4.50;99.90;;;;;;6128001;19;19926;-62
2022/12/07 10:33:00;;;;;;;10.20;3.35;;;;;;;;;;6124445;19;20281;-62
2022/12/07 10:35:24;;;;;;;16.15;4.60;;;4.60;99.90;;;;;;6126378;19;19914;-63
2022/12/07 10:37:28;;;;;;;16.63;5.47;;;4.80;99.90;;;;;;6125393;19;20024;-62
2022/12/07 10:39:42;;;;;;;15.00;5.20;;;4.50;99.90;;;;;;6126316;19;19928;-63
2022/12/07 10:42:01;;;;;;;31.55;12.50;;;4.90;99.90;;;;;;6126274;19;19929;-63
2022/12/07 10:44:05;;;;;;;19.15;8.38;;;4.60;99.90;;;;;;6126839;19;19954;-63
2022/12/07 10:46:38;;;;;;;17.67;6.72;;;4.90;99.90;;;;;;6129140;19;20031;-62
2022/12/07 10:48:49;;;;;;;13.00;5.03;;;4.30;99.90;;;;;;6125586;19;19946;-63
2022/12/07 10:51:05;;;;;;;9.63;2.78;;;5.30;99.90;;;;;;6126671;19;19978;-63
2022/12/07 10:53:35;;;;;;;9.63;3.78;;;4.90;99.90;;;;;;6128263;19;19914;-63
2022/12/07 10:55:53;;;;;;;12.90;8.57;;;4.80;99.90;;;;;;6124833;19;19935;-64
2022/12/07 10:58:16;;;;;;;8.52;0.82;;;5.30;99.90;;;;;;6125672;19;19943;-63
2022/12/07 11:00:23;;;;;;;4.32;0.75;;;5.60;99.90;;;;;;6127067;19;19922;-64
2022/12/07 11:02:48;;;;;;;5.53;0.88;;;4.90;99.90;;;;;;6124391;19;19921;-63
2022/12/07 11:05:02;;;;;;;5.55;0.73;;;5.20;99.90;;;;;;6115754;19;19970;-64
2022/12/07 11:07:13;;;;;;;2.33;0.75;;;4.70;99.90;;;;;;6128621;19;19910;-64
2022/12/07 11:09:53;;;;;;;3.72;0.50;;;5.30;99.90;;;;;;6125033;19;19926;-64
2022/12/07 11:12:07;;;;;;;6.38;0.68;;;4.40;99.90;;;;;;6123797;19;19926;-64
2022/12/07 11:14:26;;;;;;;3.72;0.63;;;5.00;99.90;;;;;;6126082;19;19937;-63
2022/12/07 11:16:50;;;;;;;5.88;0.55;;;5.10;99.90;;;;;;6117365;19;19922;-63
2022/12/07 11:19:16;;;;;;;4.10;1.10;;;5.60;99.90;;;;;;6127266;19;19923;-63
2022/12/07 11:21:27;;;;;;;2.42;0.50;;;5.50;99.90;;;;;;6126110;19;19927;-63
2022/12/07 11:23:42;;;;;;;5.25;0.60;;;5.80;99.90;;;;;;6127081;19;20263;-63
2022/12/07 11:25:55;;;;;;;6.43;0.60;;;5.60;99.90;;;;;;6127548;19;20494;-63
2022/12/07 11:28:16;;;;;;;4.18;0.60;;;5.30;99.90;;;;;;6123707;19;19927;-71
2022/12/07 11:30:25;;;;;;;2.83;0.65;;;5.30;99.90;;;;;;6127494;19;19918;-70
2022/12/07 11:32:51;;;;;;;5.40;1.33;;;4.60;99.90;;;;;;6124890;19;19929;-70
2022/12/07 11:35:09;;;;;;;2.58;0.60;;;6.00;99.90;;;;;;6117384;19;24057;-70
2022/12/07 11:37:17;;;;;;;2.50;0.57;;;5.80;99.90;;;;;;6127047;19;19935;-66